Time;durP1;ratioP1;P1;durP2;ratioP2;P2;SDS_P1;SDS_P2;PMS_P1;PMS_P2;Temp;Humidity;BMP_temperature;BMP_pressure;BME280_temperature;BME280_humidity;BME280_pressure;Samples;Min_cycle;Max_cycle;Signal;HPM_P1;HPM_P2
2022/04/27 00:01:54;;;;;;;0.00;0.00;;;;;;;11.20;48.55;102045.22;7357312;19;20015;-62
2022/04/27 00:04:19;;;;;;;0.00;0.00;;;;;;;11.14;48.19;102046.97;7359396;19;20114;-63
2022/04/27 00:06:45;;;;;;;0.00;0.00;;;;;;;11.08;48.56;102041.78;7351979;19;20002;-62
2022/04/27 00:09:11;;;;;;;0.00;0.00;;;;;;;11.00;48.51;102040.97;7355845;19;20402;-62
2022/04/27 00:11:37;;;;;;;0.00;0.00;;;;;;;10.86;48.48;102024.44;7354668;19;20462;-63
2022/04/27 00:14:03;;;;;;;0.00;0.00;;;;;;;10.90;48.55;102044.47;7352215;19;20018;-64
2022/04/27 00:16:29;;;;;;;0.00;0.00;;;;;;;10.90;48.68;102050.56;7356119;19;20025;-63
2022/04/27 00:18:55;;;;;;;0.00;0.00;;;;;;;10.85;48.97;102047.09;7351119;19;20094;-61
2022/04/27 00:21:20;;;;;;;0.00;0.00;;;;;;;10.81;48.76;102040.13;7358566;19;20042;-62
2022/04/27 00:23:46;;;;;;;0.00;0.00;;;;;;;10.78;49.25;102052.31;7358245;19;20496;-63
2022/04/27 00:26:12;;;;;;;0.00;0.00;;;;;;;10.73;49.92;102051.47;7354070;19;20031;-62
2022/04/27 00:28:37;;;;;;;0.00;0.00;;;;;;;10.70;49.69;102054.97;7355850;19;20006;-63
2022/04/27 00:31:03;;;;;;;0.00;0.00;;;;;;;10.66;49.89;102053.22;7350281;19;20038;-61
2022/04/27 00:33:28;;;;;;;0.00;0.00;;;;;;;10.60;50.22;102050.63;7349954;19;20014;-62
2022/04/27 00:35:54;;;;;;;0.00;0.00;;;;;;;10.34;50.30;102012.34;7355969;19;20006;-63
2022/04/27 00:38:19;;;;;;;0.00;0.00;;;;;;;10.56;50.97;102060.19;7357504;19;20508;-63
2022/04/27 00:40:45;;;;;;;0.00;0.00;;;;;;;10.52;50.83;102062.81;7358708;19;20010;-62
2022/04/27 00:43:14;;;;;;;0.00;0.00;;;;;;;10.51;50.20;102063.69;7350490;19;20018;-62
2022/04/27 00:45:40;;;;;;;0.00;0.00;;;;;;;10.43;51.77;102049.75;7359335;19;20050;-61
2022/04/27 00:48:06;;;;;;;0.00;0.00;;;;;;;10.46;52.20;102057.59;7356740;19;20006;-63
2022/04/27 00:50:32;;;;;;;0.00;0.00;;;;;;;10.43;52.09;102062.81;7351936;19;20018;-63
2022/04/27 00:52:59;;;;;;;0.00;0.00;;;;;;;10.40;51.80;102055.84;7352365;19;20010;-63
2022/04/27 00:55:25;;;;;;;0.00;0.00;;;;;;;10.39;51.49;102054.09;7354199;19;20014;-61
2022/04/27 00:57:51;;;;;;;0.00;0.00;;;;;;;10.31;52.02;102048.03;7358663;19;20045;-62
2022/04/27 01:00:17;;;;;;;0.00;0.00;;;;;;;10.14;52.51;102016.66;7356002;19;20019;-62
2022/04/27 01:02:43;;;;;;;0.00;0.00;;;;;;;10.22;52.52;102037.53;7348419;19;20094;-63
2022/04/27 01:05:11;;;;;;;0.00;0.00;;;;;;;10.30;52.62;102054.13;7356664;19;21062;-63
2022/04/27 01:07:40;;;;;;;0.00;0.00;;;;;;;10.26;53.15;102054.97;7354022;19;19998;-63
2022/04/27 01:10:07;;;;;;;0.00;0.00;;;;;;;10.26;53.38;102049.75;7354456;19;20565;-62
2022/04/27 01:12:34;;;;;;;0.00;0.00;;;;;;;10.22;52.77;102054.06;7349810;19;20011;-62
2022/04/27 01:14:59;;;;;;;0.00;0.00;;;;;;;10.21;52.13;102051.47;7353433;19;20035;-61
2022/04/27 01:17:24;;;;;;;0.00;0.00;;;;;;;10.06;52.60;102034.06;7352799;19;20020;-63
2022/04/27 01:19:50;;;;;;;0.00;0.00;;;;;;;10.14;52.16;102051.47;7358304;19;20851;-62
2022/04/27 01:22:15;;;;;;;0.00;0.00;;;;;;;10.05;52.39;102030.56;7351715;19;20006;-62
2022/04/27 01:24:42;;;;;;;0.10;0.10;;;;;;;10.12;52.35;102054.94;7353702;19;20545;-62
2022/04/27 01:27:07;;;;;;;0.00;0.00;;;;;;;9.94;52.54;102029.69;7358857;19;20027;-62
2022/04/27 01:29:33;;;;;;;0.00;0.00;;;;;;;10.06;52.65;102052.31;7356571;19;20014;-62
2022/04/27 01:32:00;;;;;;;0.00;0.00;;;;;;;10.05;52.60;102055.81;7354530;19;19998;-62
2022/04/27 01:34:26;;;;;;;0.00;0.00;;;;;;;10.01;52.89;102049.69;7356131;19;20030;-61
2022/04/27 01:36:54;;;;;;;0.00;0.00;;;;;;;9.99;52.86;102051.44;7354172;19;20002;-63
2022/04/27 01:39:23;;;;;;;0.00;0.00;;;;;;;9.97;53.19;102053.16;7356328;19;20103;-62
2022/04/27 01:41:49;;;;;;;0.00;0.00;;;;;;;9.85;53.14;102037.50;7354721;19;20117;-62
2022/04/27 01:44:15;;;;;;;0.00;0.00;;;;;;;9.91;53.37;102058.38;7356896;19;20394;-62
2022/04/27 01:46:40;;;;;;;0.00;0.00;;;;;;;9.91;53.98;102062.75;7343758;19;20003;-62
2022/04/27 01:49:06;;;;;;;0.00;0.00;;;;;;;9.88;53.97;102063.59;7347798;19;20010;-62
2022/04/27 01:54:15;;;;;;;0.00;0.00;;;;;;;9.83;54.13;102065.31;7357850;19;20020;-63
2022/04/27 01:56:41;;;;;;;0.00;0.00;;;;;;;9.78;54.35;102067.03;7362196;19;20006;-62
2022/04/27 01:59:08;;;;;;;0.00;0.00;;;;;;;9.71;54.35;102049.66;7346256;19;20361;-62
2022/04/27 02:01:35;;;;;;;0.00;0.00;;;;;;;9.75;54.00;102061.84;7357330;19;20014;-63
2022/04/27 02:04:00;;;;;;;0.00;0.00;;;;;;;9.73;54.43;102069.66;7327175;19;20849;-62
2022/04/27 02:06:25;;;;;;;0.10;0.10;;;;;;;9.71;54.75;102067.91;7355027;19;20009;-61
2022/04/27 02:08:51;;;;;;;0.10;0.10;;;;;;;9.70;54.96;102079.22;7352248;19;20944;-61
2022/04/27 02:11:20;;;;;;;0.00;0.00;;;;;;;9.70;55.44;102072.25;7352617;19;20014;-63
2022/04/27 02:13:46;;;;;;;0.00;0.00;;;;;;;9.68;55.26;102071.41;7327265;19;20473;-62
2022/04/27 02:16:11;;;;;;;0.00;0.00;;;;;;;9.68;55.26;102070.50;7355549;19;21334;-61
2022/04/27 02:18:37;;;;;;;0.00;0.00;;;;;;;9.67;55.77;102072.22;7347916;19;20006;-60
2022/04/27 02:21:03;;;;;;;0.10;0.10;;;;;;;9.65;55.90;102070.50;7342660;19;20026;-62
2022/04/27 02:23:28;;;;;;;0.00;0.00;;;;;;;9.65;55.67;102073.13;7356610;19;20052;-62
2022/04/27 02:25:57;;;;;;;0.00;0.00;;;;;;;9.65;55.96;102078.31;7355253;19;20007;-62
2022/04/27 02:28:22;;;;;;;0.00;0.00;;;;;;;9.62;55.74;102072.22;7360741;19;20038;-62
2022/04/27 02:30:47;;;;;;;0.00;0.00;;;;;;;9.61;55.84;102080.91;7343782;19;20886;-63
2022/04/27 02:33:13;;;;;;;0.00;0.00;;;;;;;9.60;55.16;102079.19;7357453;19;20007;-63
2022/04/27 02:35:38;;;;;;;0.00;0.00;;;;;;;9.59;55.53;102082.66;7361110;19;20363;-63
2022/04/27 02:38:04;;;;;;;0.00;0.00;;;;;;;9.58;55.46;102080.91;7359410;19;20016;-62
2022/04/27 02:40:29;;;;;;;0.00;0.00;;;;;;;9.55;55.70;102080.03;7360970;19;20364;-63
2022/04/27 02:42:54;;;;;;;0.00;0.00;;;;;;;9.54;55.54;102080.91;7347129;19;20006;-62
2022/04/27 02:45:20;;;;;;;0.00;0.00;;;;;;;9.39;55.69;102068.66;7355537;19;20038;-62
2022/04/27 02:47:45;;;;;;;0.00;0.00;;;;;;;9.33;56.16;102055.63;7362034;19;20022;-63
2022/04/27 02:52:55;;;;;;;0.03;0.03;;;;;;;9.46;55.87;102080.84;7349210;19;20013;-62
2022/04/27 02:55:22;;;;;;;0.00;0.00;;;;;;;9.39;55.52;102076.50;7360036;19;20057;-63
2022/04/27 02:57:48;;;;;;;;;;;;;;;9.43;52.65;102091.28;7361167;19;20014;-60
2022/04/27 03:00:13;;;;;;;0.00;0.00;;;;;;;9.40;55.20;102078.22;7359381;19;20721;-62
2022/04/27 03:02:40;;;;;;;0.00;0.00;;;;;;;9.35;55.57;102078.22;7352951;19;20017;-63
2022/04/27 03:05:06;;;;;;;0.10;0.10;;;;;;;9.33;55.81;102089.50;7350707;19;20011;-63
2022/04/27 03:07:31;;;;;;;0.00;0.00;;;;;;;9.30;55.48;102084.25;7362180;19;20014;-62
2022/04/27 03:09:56;;;;;;;0.00;0.00;;;;;;;8.93;54.97;102034.56;7355235;19;20053;-61
2022/04/27 03:12:22;;;;;;;0.10;0.10;;;;;;;9.28;55.23;102091.22;7362671;19;20021;-62
2022/04/27 03:14:47;;;;;;;0.00;0.00;;;;;;;9.25;55.22;102092.06;7361415;19;20042;-62
2022/04/27 03:17:13;;;;;;;0.00;0.00;;;;;;;9.23;55.46;102093.81;7344181;19;20006;-62
2022/04/27 03:19:38;;;;;;;0.00;0.00;;;;;;;9.20;55.49;102090.28;7363280;19;20030;-62
2022/04/27 03:22:04;;;;;;;0.05;0.05;;;;;;;9.19;55.37;102091.16;7336307;19;20660;-62
2022/04/27 03:24:30;;;;;;;0.00;0.00;;;;;;;9.16;55.68;102091.13;7363372;19;20082;-62
2022/04/27 03:26:55;;;;;;;0.00;0.00;;;;;;;9.14;56.15;102088.53;7362483;19;20034;-62
2022/04/27 03:29:21;;;;;;;0.10;0.10;;;;;;;9.03;56.63;102075.44;7361137;19;20016;-62
2022/04/27 03:31:46;;;;;;;0.00;0.00;;;;;;;9.10;56.08;102092.84;7364190;19;20003;-62
2022/04/27 03:34:11;;;;;;;0.00;0.00;;;;;;;9.09;56.73;102101.53;7356673;19;20010;-62
2022/04/27 03:36:37;;;;;;;0.00;0.00;;;;;;;8.99;56.87;102089.31;7359402;19;20054;-61
2022/04/27 03:39:02;;;;;;;0.00;0.00;;;;;;;9.05;56.69;102099.78;7364918;19;20002;-62
2022/04/27 03:41:28;;;;;;;0.00;0.00;;;;;;;9.05;56.80;102098.91;7347257;19;20037;-61
2022/04/27 03:43:53;;;;;;;0.08;0.08;;;;;;;9.01;57.39;102095.41;7360010;19;20362;-60
2022/04/27 03:46:22;;;;;;;0.00;0.00;;;;;;;9.02;57.04;102099.78;7361509;19;20022;-58
2022/04/27 03:48:47;;;;;;;0.00;0.00;;;;;;;9.01;57.29;102103.22;7352491;19;20616;-62
2022/04/27 03:51:13;;;;;;;0.00;0.00;;;;;;;8.99;57.20;102110.16;7363684;19;20013;-63
2022/04/27 03:53:39;;;;;;;0.10;0.10;;;;;;;8.99;57.07;102098.88;7356765;19;20010;-62
2022/04/27 03:56:05;;;;;;;0.10;0.10;;;;;;;8.98;57.08;102100.59;7362164;19;20015;-62
2022/04/27 03:58:32;;;;;;;0.00;0.00;;;;;;;8.95;56.63;102097.97;7360903;19;20037;-63
2022/04/27 04:00:57;;;;;;;0.10;0.10;;;;;;;8.94;57.35;102104.06;7355345;19;20026;-60
2022/04/27 04:03:23;;;;;;;0.10;0.10;;;;;;;8.93;56.88;102099.72;7359603;19;20010;-61
2022/04/27 04:05:48;;;;;;;0.00;0.00;;;;;;;8.91;57.12;102096.19;7360844;19;20014;-62
2022/04/27 04:08:14;;;;;;;0.00;0.00;;;;;;;8.89;57.23;102103.16;7354286;19;20011;-63
2022/04/27 04:10:40;;;;;;;0.00;0.00;;;;;;;8.88;57.49;102108.34;7361227;19;20015;-62
2022/04/27 04:13:05;;;;;;;0.00;0.00;;;;;;;8.84;57.31;102108.31;7359678;19;20013;-62
2022/04/27 04:15:31;;;;;;;0.10;0.10;;;;;;;8.83;57.29;102106.59;7355291;19;20007;-62
2022/04/27 04:17:56;;;;;;;0.00;0.00;;;;;;;8.82;57.75;102114.41;7359451;19;20370;-62
2022/04/27 04:20:22;;;;;;;0.10;0.10;;;;;;;8.79;57.53;102112.63;7364018;19;20018;-62
2022/04/27 04:22:48;;;;;;;0.00;0.00;;;;;;;8.77;57.41;102106.56;7356627;19;20087;-62
2022/04/27 04:30:43;;;;;;;0.10;0.10;;;;;;;8.62;57.02;102097.72;7358546;19;20586;-61
2022/04/27 04:33:08;;;;;;;0.08;0.08;;;;;;;8.69;56.92;102115.16;7360047;19;20018;-62
2022/04/27 04:35:35;;;;;;;0.00;0.00;;;;;;;8.67;56.90;102116.84;7359139;19;20010;-63
2022/04/27 04:38:00;;;;;;;0.00;0.00;;;;;;;8.63;57.51;102113.38;7361911;19;21235;-60
2022/04/27 04:40:26;;;;;;;0.00;0.00;;;;;;;8.61;57.54;102111.59;7349286;19;20486;-62
2022/04/27 04:42:52;;;;;;;0.00;0.00;;;;;;;8.60;57.19;102113.34;7352907;19;20248;-62
2022/04/27 04:45:17;;;;;;;0.00;0.00;;;;;;;8.57;57.22;102116.81;7359771;19;20031;-61
2022/04/27 04:47:43;;;;;;;0.00;0.00;;;;;;;8.52;57.46;102113.28;7354824;19;20629;-62
2022/04/27 04:50:10;;;;;;;0.00;0.00;;;;;;;8.55;57.59;102115.91;7345244;19;20455;-62
2022/04/27 04:52:35;;;;;;;0.00;0.00;;;;;;;8.52;57.49;102118.50;7357859;19;20026;-61
2022/04/27 04:55:01;;;;;;;0.08;0.08;;;;;;;8.44;57.95;102104.53;7360561;19;20029;-61
2022/04/27 04:57:26;;;;;;;0.00;0.00;;;;;;;8.50;58.15;102115.00;7359165;19;20042;-64
2022/04/27 04:59:52;;;;;;;0.00;0.00;;;;;;;8.47;58.07;102114.13;7351212;19;20831;-63
2022/04/27 05:02:17;;;;;;;0.00;0.00;;;;;;;8.47;58.10;102119.31;7362821;19;20006;-64
2022/04/27 05:04:43;;;;;;;0.00;0.00;;;;;;;8.45;58.17;102116.69;7353058;19;20017;-63
2022/04/27 05:07:09;;;;;;;0.00;0.00;;;;;;;8.44;58.18;102120.16;7351278;19;20690;-62
2022/04/27 05:09:34;;;;;;;0.00;0.00;;;;;;;8.44;58.35;102109.75;7360268;19;20006;-63
2022/04/27 05:12:00;;;;;;;0.00;0.00;;;;;;;8.43;58.28;102114.94;7350693;19;20034;-63
2022/04/27 05:14:25;;;;;;;0.00;0.00;;;;;;;8.42;58.55;102118.41;7357301;19;20024;-63
2022/04/27 05:16:50;;;;;;;0.00;0.00;;;;;;;8.41;58.86;102125.31;7357317;19;20010;-62
2022/04/27 05:19:16;;;;;;;0.00;0.00;;;;;;;8.43;59.00;102128.81;7356659;19;20034;-64
2022/04/27 05:21:41;;;;;;;0.00;0.00;;;;;;;8.38;58.66;102122.72;7349971;19;20479;-62
2022/04/27 05:24:07;;;;;;;0.00;0.00;;;;;;;8.37;59.06;102120.09;7355141;19;20009;-63
2022/04/27 05:26:32;;;;;;;0.00;0.00;;;;;;;8.37;59.15;102118.38;7357657;19;20054;-63
2022/04/27 05:32:00;;;;;;;0.00;0.00;;;;;;;8.42;59.16;102129.69;7359306;19;20023;-63
2022/04/27 05:34:26;;;;;;;0.00;0.00;;;;;;;8.47;59.40;102134.94;7358994;19;20014;-62
2022/04/27 05:36:52;;;;;;;0.00;0.00;;;;;;;8.47;59.32;102130.59;7359926;19;20030;-61
2022/04/27 05:39:20;;;;;;;0.00;0.00;;;;;;;8.48;59.40;102137.56;7361285;19;20010;-63
2022/04/27 05:41:47;;;;;;;0.00;0.00;;;;;;;8.51;59.39;102145.38;7358367;19;20018;-63
2022/04/27 05:44:12;;;;;;;0.10;0.10;;;;;;;8.52;59.57;102154.94;7351629;19;20026;-63
2022/04/27 05:46:41;;;;;;;0.00;0.00;;;;;;;8.54;59.66;102157.56;7357916;19;20829;-63
2022/04/27 05:49:06;;;;;;;0.00;0.00;;;;;;;8.54;59.83;102158.44;7357207;19;20014;-63
2022/04/27 05:51:31;;;;;;;0.10;0.10;;;;;;;8.57;59.84;102163.69;7358769;19;20012;-63
2022/04/27 05:53:57;;;;;;;0.10;0.10;;;;;;;8.58;59.56;102167.16;7349959;19;20025;-63
2022/04/27 05:56:24;;;;;;;0.00;0.00;;;;;;;8.63;59.24;102167.19;7351791;19;20011;-63
2022/04/27 05:58:50;;;;;;;0.00;0.00;;;;;;;8.64;59.39;102164.59;7361653;19;20070;-63
2022/04/27 06:01:15;;;;;;;0.00;0.00;;;;;;;8.65;59.17;102168.06;7363976;19;20066;-63
2022/04/27 06:03:41;;;;;;;0.00;0.00;;;;;;;8.71;58.66;102175.91;7362873;19;20039;-63
2022/04/27 06:06:06;;;;;;;0.10;0.10;;;;;;;8.74;58.68;102178.56;7362511;19;20002;-62
2022/04/27 06:08:32;;;;;;;0.00;0.00;;;;;;;8.78;58.79;102172.53;7358958;19;20022;-62
2022/04/27 06:10:57;;;;;;;0.00;0.00;;;;;;;8.81;59.14;102178.63;7363552;19;20077;-63
2022/04/27 06:13:24;;;;;;;0.10;0.10;;;;;;;8.87;59.39;102171.72;7357259;19;20010;-63
2022/04/27 06:15:50;;;;;;;0.00;0.00;;;;;;;8.91;58.97;102178.69;7363517;19;20497;-63
2022/04/27 06:18:15;;;;;;;0.00;0.00;;;;;;;8.96;58.98;102177.88;7366777;19;19998;-64
2022/04/27 06:20:40;;;;;;;0.00;0.00;;;;;;;8.99;58.82;102175.28;7352934;19;20018;-63
2022/04/27 06:23:06;;;;;;;0.00;0.00;;;;;;;9.04;58.81;102176.19;7363948;19;20002;-63
2022/04/27 06:25:33;;;;;;;0.00;0.00;;;;;;;9.10;59.01;102176.25;7362293;19;20021;-63
2022/04/27 06:27:58;;;;;;;0.03;0.03;;;;;;;9.16;59.42;102187.56;7356218;19;20010;-61
2022/04/27 06:30:25;;;;;;;0.10;0.10;;;;;;;9.23;59.39;102189.38;7355690;19;20006;-62
2022/04/27 06:32:51;;;;;;;0.10;0.10;;;;;;;9.30;59.37;102188.53;7359675;19;20030;-63
2022/04/27 06:35:16;;;;;;;0.03;0.03;;;;;;;9.37;59.39;102190.31;7359271;19;20002;-63
2022/04/27 06:37:42;;;;;;;0.00;0.00;;;;;;;9.42;59.36;102193.81;7355228;19;20014;-61
2022/04/27 06:40:09;;;;;;;0.00;0.00;;;;;;;9.50;59.48;102202.56;7362280;19;20018;-63
2022/04/27 06:42:35;;;;;;;0.00;0.00;;;;;;;9.56;60.66;102194.78;7352241;19;20014;-62
2022/04/27 06:45:01;;;;;;;0.00;0.00;;;;;;;9.53;59.88;102176.53;7362335;19;20679;-62
2022/04/27 06:47:27;;;;;;;0.05;0.05;;;;;;;9.69;59.45;102190.50;7357362;19;20016;-63
2022/04/27 06:49:52;;;;;;;0.00;0.00;;;;;;;9.78;61.12;102198.38;7359627;19;20097;-63
2022/04/27 06:52:18;;;;;;;0.00;0.00;;;;;;;9.87;60.94;102197.53;7361442;19;20006;-63
2022/04/27 06:54:43;;;;;;;0.10;0.10;;;;;;;9.94;60.60;102204.53;7355006;19;20113;-62
2022/04/27 06:57:09;;;;;;;0.00;0.00;;;;;;;10.01;60.98;102206.28;7361237;19;20014;-62
2022/04/27 06:59:34;;;;;;;0.00;0.00;;;;;;;10.09;60.70;102195.88;7357211;19;20010;-60
2022/04/27 07:02:00;;;;;;;0.00;0.00;;;;;;;10.18;60.42;102202.84;7357465;19;20033;-63
2022/04/27 07:04:26;;;;;;;0.00;0.00;;;;;;;10.17;61.64;102186.31;7359528;19;20365;-62
2022/04/27 07:06:53;;;;;;;0.00;0.00;;;;;;;10.33;61.60;102195.09;7347605;19;20739;-63
2022/04/27 07:09:18;;;;;;;0.00;0.00;;;;;;;10.41;62.36;102201.22;7357923;19;20014;-63
2022/04/27 07:11:44;;;;;;;0.00;0.00;;;;;;;10.49;62.56;102207.34;7360966;19;20021;-62
2022/04/27 07:14:11;;;;;;;0.00;0.00;;;;;;;10.58;62.71;102199.50;7354665;19;20099;-63
2022/04/27 07:16:37;;;;;;;0.00;0.00;;;;;;;10.65;62.57;102201.25;7359908;19;20010;-64
2022/04/27 07:19:02;;;;;;;0.00;0.00;;;;;;;10.74;63.14;102208.22;7358811;19;20011;-62
2022/04/27 07:21:28;;;;;;;0.00;0.00;;;;;;;10.73;63.17;102195.16;7349761;19;20011;-63
2022/04/27 07:23:53;;;;;;;0.00;0.00;;;;;;;10.91;63.07;102213.47;7360935;19;20018;-60
2022/04/27 07:26:19;;;;;;;0.00;0.00;;;;;;;10.99;63.00;102209.09;7359296;19;20737;-60
2022/04/27 07:28:44;;;;;;;0.00;0.00;;;;;;;11.08;63.44;102219.56;7360560;19;20470;-62
2022/04/27 07:31:09;;;;;;;0.00;0.00;;;;;;;11.13;63.17;102209.97;7355606;19;20014;-63
2022/04/27 07:33:35;;;;;;;0.08;0.08;;;;;;;11.26;62.66;102220.44;7360914;19;20006;-63
2022/04/27 07:36:01;;;;;;;0.00;0.00;;;;;;;11.27;62.42;102217.81;7355110;19;20002;-63
2022/04/27 07:38:29;;;;;;;0.00;0.00;;;;;;;11.44;62.81;102225.59;7359862;19;19998;-62
2022/04/27 07:40:55;;;;;;;0.00;0.00;;;;;;;11.54;62.87;102237.78;7362481;19;20459;-63
2022/04/27 07:43:20;;;;;;;0.00;0.00;;;;;;;11.65;63.20;102243.00;7361132;19;20006;-63
2022/04/27 07:45:45;;;;;;;0.00;0.00;;;;;;;11.74;63.47;102239.50;7350763;19;20015;-63
2022/04/27 07:48:11;;;;;;;0.00;0.00;;;;;;;11.87;62.81;102246.47;7361288;19;20002;-63
2022/04/27 07:50:37;;;;;;;0.00;0.00;;;;;;;12.01;63.21;102257.75;7359445;19;20336;-62
2022/04/27 07:53:02;;;;;;;0.00;0.00;;;;;;;12.16;63.14;102259.44;7357175;19;20002;-61
2022/04/27 07:55:29;;;;;;;0.00;0.00;;;;;;;12.30;62.42;102251.53;7339316;19;20006;-63
2022/04/27 07:57:55;;;;;;;0.00;0.00;;;;;;;12.45;62.75;102256.69;7356575;19;20003;-63
2022/04/27 08:00:20;;;;;;;0.00;0.00;;;;;;;12.55;62.68;102258.38;7351779;19;20086;-63
2022/04/27 08:02:47;;;;;;;0.10;0.10;;;;;;;12.72;62.58;102267.03;7364048;19;20034;-63
2022/04/27 08:05:12;;;;;;;0.00;0.00;;;;;;;12.87;62.48;102266.00;7351827;19;20003;-62
2022/04/27 08:07:47;;;;;;;0.00;0.00;;;;;;;13.05;61.58;102264.16;7364612;19;20014;-63
2022/04/27 08:10:22;;;;;;;0.00;0.00;;;;;;;13.19;60.40;102267.53;7352364;19;20026;-62
2022/04/27 08:12:49;;;;;;;0.00;0.00;;;;;;;13.26;61.49;102271.88;7360343;19;20002;-64
2022/04/27 08:15:16;;;;;;;0.00;0.00;;;;;;;13.37;61.18;102266.53;7348383;19;20363;-63
2022/04/27 08:18:02;;;;;;;0.00;0.00;;;;;;;13.48;59.96;102264.66;7363975;19;20490;-64
2022/04/27 08:23:14;;;;;;;0.00;0.00;;;;;;;13.72;60.66;102269.66;7348845;19;20849;-63
2022/04/27 08:25:41;;;;;;;0.00;0.00;;;;;;;13.70;60.51;102245.19;7348986;19;20022;-63
2022/04/27 08:28:07;;;;;;;0.03;0.03;;;;;;;13.93;60.10;102268.56;7348644;19;20022;-61
2022/04/27 08:30:37;;;;;;;0.00;0.00;;;;;;;14.01;59.72;102271.09;7351514;19;20026;-61
2022/04/27 08:33:04;;;;;;;0.00;0.00;;;;;;;14.09;59.73;102268.38;7354274;19;20026;-62
2022/04/27 08:35:34;;;;;;;0.00;0.00;;;;;;;14.17;59.44;102272.66;7330680;19;20002;-63
2022/04/27 08:38:04;;;;;;;0.00;0.00;;;;;;;14.25;59.18;102276.06;7358776;19;20458;-63
2022/04/27 08:40:30;;;;;;;0.00;0.00;;;;;;;14.35;58.63;102281.22;7355030;19;20006;-64
2022/04/27 08:42:57;;;;;;;0.00;0.00;;;;;;;14.44;58.19;102279.28;7351975;19;20074;-63
2022/04/27 08:45:23;;;;;;;0.00;0.00;;;;;;;14.50;57.90;102275.78;7359755;19;20040;-63
2022/04/27 08:47:50;;;;;;;0.00;0.00;;;;;;;14.58;57.46;102289.66;7351561;19;20002;-63
2022/04/27 08:50:17;;;;;;;0.10;0.10;;;;;;;14.60;57.53;102279.13;7358460;19;20006;-62
2022/04/27 08:52:43;;;;;;;0.00;0.00;;;;;;;14.58;57.11;102279.16;7351398;19;20026;-61
2022/04/27 08:55:10;;;;;;;0.00;0.00;;;;;;;14.64;57.80;102281.69;7355540;19;20002;-63
2022/04/27 08:57:36;;;;;;;0.00;0.00;;;;;;;14.69;57.23;102282.50;7358347;19;20109;-64
2022/04/27 09:00:07;;;;;;;0.00;0.00;;;;;;;14.83;57.26;102294.56;7360221;19;20006;-63
2022/04/27 09:02:33;;;;;;;0.00;0.00;;;;;;;14.86;56.72;102291.91;7354585;19;19998;-63
2022/04/27 09:05:19;;;;;;;0.00;0.00;;;;;;;15.02;56.06;102290.78;7347606;19;20006;-63
2022/04/27 09:07:50;;;;;;;0.00;0.00;;;;;;;15.09;56.40;102302.94;7250849;19;2005081;-62
2022/04/27 09:10:21;;;;;;;0.00;0.00;;;;;;;15.17;56.67;102292.28;7355882;19;20021;-63
2022/04/27 09:12:56;;;;;;;0.08;0.08;;;;;;;15.41;56.30;102298.88;7357466;19;20037;-63
2022/04/27 09:15:23;;;;;;;0.00;0.00;;;;;;;15.53;56.00;102304.81;7358161;19;20015;-64
2022/04/27 09:20:52;;;;;;;0.00;0.00;;;;;;;15.75;55.16;102300.06;7345193;19;20023;-63
2022/04/27 09:23:40;;;;;;;0.00;0.00;;;;;;;16.01;54.18;102306.59;7356767;19;20010;-64
2022/04/27 09:26:22;;;;;;;0.00;0.00;;;;;;;16.08;54.48;102309.09;7353882;19;20006;-63
2022/04/27 09:28:53;;;;;;;0.00;0.00;;;;;;;16.06;54.13;102310.88;7352443;19;20002;-62
2022/04/27 09:31:30;;;;;;;0.10;0.10;;;;;;;16.11;53.82;102307.28;7359928;19;20029;-63
2022/04/27 09:34:03;;;;;;;0.00;0.00;;;;;;;16.13;53.74;102322.19;7360751;19;20009;-63
2022/04/27 09:36:29;;;;;;;0.10;0.10;;;;;;;16.02;53.75;102303.09;7350619;19;20006;-64
2022/04/27 09:38:57;;;;;;;0.10;0.10;;;;;;;16.16;52.86;102322.09;7364523;19;20486;-63
2022/04/27 09:41:41;;;;;;;0.00;0.00;;;;;;;16.10;53.05;102293.25;7357495;19;20718;-63
2022/04/27 09:44:08;;;;;;;0.10;0.10;;;;;;;16.09;52.41;102297.66;7361533;19;20825;-64
2022/04/27 09:46:44;;;;;;;0.00;0.00;;;;;;;16.29;53.12;102310.41;7360336;19;20018;-64
2022/04/27 09:49:11;;;;;;;0.00;0.00;;;;;;;16.35;52.75;102322.59;7343539;19;20014;-63
2022/04/27 09:51:47;;;;;;;0.00;0.00;;;;;;;16.50;52.63;102319.63;7363247;19;20033;-64
2022/04/27 09:54:21;;;;;;;0.00;0.00;;;;;;;16.78;52.57;102321.72;7350444;19;20109;-64
2022/04/27 09:57:08;;;;;;;0.10;0.10;;;;;;;17.16;52.80;102323.44;7364534;19;20090;-64
2022/04/27 09:59:35;;;;;;;;;;;;;;;17.60;53.04;102326.75;7359984;19;20025;-64
2022/04/27 10:02:10;;;;;;;0.00;0.00;;;;;;;17.94;50.95;102320.56;7364397;19;20399;-62
2022/04/27 10:04:37;;;;;;;0.00;0.00;;;;;;;18.39;49.67;102316.63;7345814;19;20744;-63
2022/04/27 10:07:05;;;;;;;0.00;0.00;;;;;;;18.87;48.76;102317.84;7364968;19;20006;-61
2022/04/27 10:09:32;;;;;;;0.00;0.00;;;;;;;19.27;47.50;102317.44;7353714;19;20006;-64
2022/04/27 10:12:07;;;;;;;0.00;0.00;;;;;;;19.58;47.78;102313.75;7362188;19;20030;-63
2022/04/27 10:14:33;;;;;;;0.10;0.10;;;;;;;19.74;46.77;102316.75;7360586;19;20006;-62
2022/04/27 10:16:59;;;;;;;0.10;0.10;;;;;;;19.88;45.71;102299.44;7355028;19;20013;-64
2022/04/27 10:19:24;;;;;;;0.10;0.10;;;;;;;20.14;46.06;102294.97;7359659;19;20020;-63
2022/04/27 10:21:57;;;;;;;0.10;0.10;;;;;;;20.42;44.51;102303.59;7363331;19;20549;-64
2022/04/27 10:24:46;;;;;;;0.00;0.00;;;;;;;20.76;46.09;102318.25;7363077;19;20017;-64
2022/04/27 10:27:33;;;;;;;0.10;0.10;;;;;;;20.84;45.37;102323.25;7353928;19;20038;-64
2022/04/27 10:30:04;;;;;;;0.00;0.00;;;;;;;20.86;44.54;102322.25;7360722;19;20069;-62
2022/04/27 10:32:45;;;;;;;0.10;0.10;;;;;;;21.15;45.24;102323.75;7362697;19;20042;-64
2022/04/27 10:35:30;;;;;;;0.10;0.10;;;;;;;21.35;44.97;102317.63;7359489;19;20014;-64
2022/04/27 10:37:57;;;;;;;0.00;0.00;;;;;;;21.50;42.43;102335.59;7362619;19;20115;-64
2022/04/27 10:40:37;;;;;;;0.10;0.10;;;;;;;21.78;44.01;102342.34;7352668;19;20014;-65
2022/04/27 10:43:04;;;;;;;0.00;0.00;;;;;;;21.81;42.13;102333.41;7360852;19;20024;-64
2022/04/27 10:45:29;;;;;;;0.08;0.08;;;;;;;21.84;41.37;102328.78;7356216;19;20018;-62
2022/04/27 10:47:55;;;;;;;0.08;0.08;;;;;;;22.13;41.32;102346.16;7353785;19;20013;-64
2022/04/27 10:50:23;;;;;;;0.10;0.10;;;;;;;22.18;40.82;102316.69;7360957;19;20026;-65
2022/04/27 10:52:51;;;;;;;0.10;0.10;;;;;;;22.37;40.40;102344.19;7359780;19;20002;-64
2022/04/27 10:55:35;;;;;;;0.00;0.00;;;;;;;22.50;41.69;102347.97;7361514;19;20010;-64
2022/04/27 10:58:14;;;;;;;0.10;0.10;;;;;;;22.44;41.26;102345.59;7358882;19;20089;-64
2022/04/27 11:00:57;;;;;;;0.10;0.10;;;;;;;22.32;41.10;102346.19;7355849;19;20033;-63
2022/04/27 11:03:25;;;;;;;0.10;0.10;;;;;;;22.05;39.44;102353.59;7358100;19;20014;-64
2022/04/27 11:05:51;;;;;;;0.00;0.00;;;;;;;21.67;38.97;102328.66;7360087;19;20033;-63
2022/04/27 11:08:41;;;;;;;0.10;0.10;;;;;;;21.59;39.93;102349.41;7346952;19;20010;-64
2022/04/27 11:11:07;;;;;;;0.10;0.10;;;;;;;21.10;39.93;102335.47;7256011;19;2004337;-64
2022/04/27 11:13:34;;;;;;;0.10;0.10;;;;;;;20.88;40.39;102331.03;7358818;19;20006;-64
2022/04/27 11:16:10;;;;;;;0.03;0.03;;;;;;;20.76;41.74;102328.84;7360747;19;20015;-64
2022/04/27 11:18:58;;;;;;;0.00;0.00;;;;;;;20.91;42.36;102341.53;7343067;19;20027;-64
2022/04/27 11:21:30;;;;;;;0.00;0.00;;;;;;;20.91;41.32;102346.84;7352537;19;20043;-63
2022/04/27 11:23:58;;;;;;;0.00;0.00;;;;;;;20.89;41.46;102338.09;7357423;19;20044;-64
2022/04/27 11:26:24;;;;;;;0.10;0.10;;;;;;;20.88;41.63;102351.41;7358300;19;20028;-63
2022/04/27 11:28:53;;;;;;;0.00;0.00;;;;;;;20.87;41.81;102350.53;7341331;19;20016;-63
2022/04/27 11:31:19;;;;;;;0.10;0.10;;;;;;;20.91;41.93;102346.84;7358067;19;20018;-63
2022/04/27 11:33:45;;;;;;;0.00;0.00;;;;;;;21.01;41.27;102346.47;7346318;19;20109;-62
2022/04/27 11:36:21;;;;;;;0.10;0.10;;;;;;;21.11;41.79;102348.69;7361743;19;20017;-64
2022/04/27 11:38:46;;;;;;;0.00;0.00;;;;;;;21.07;40.79;102346.22;7358055;19;20014;-62
2022/04/27 11:41:16;;;;;;;0.10;0.10;;;;;;;21.09;41.60;102337.28;7350544;19;20017;-63
2022/04/27 11:43:42;;;;;;;0.00;0.00;;;;;;;21.21;41.42;102342.06;7356533;19;20018;-64
2022/04/27 11:46:09;;;;;;;0.10;0.10;;;;;;;21.49;41.61;102351.56;7351353;19;20035;-63
2022/04/27 11:48:34;;;;;;;0.08;0.08;;;;;;;21.83;41.55;102345.69;7353925;19;20017;-63
2022/04/27 11:51:01;;;;;;;0.10;0.10;;;;;;;22.24;40.36;102343.88;7356860;19;20738;-63